Time;durP1;ratioP1;P1;durP2;ratioP2;P2;SDS_P1;SDS_P2;PMS_P1;PMS_P2;Temp;Humidity;BMP_temperature;BMP_pressure;BME280_temperature;BME280_humidity;BME280_pressure;Samples;Min_cycle;Max_cycle;Signal;HPM_P1;HPM_P2
2022/11/24 00:00:01;;;;;;;;;;;23.90;34.50;;;;;;498100;239;1164;-74
2022/11/24 00:02:02;;;;;;;;;;;23.80;34.50;;;;;;498146;239;1182;-74
2022/11/24 00:04:04;;;;;;;;;;;23.80;34.50;;;;;;498102;239;1203;-74
2022/11/24 00:06:06;;;;;;;;;;;23.80;34.50;;;;;;498159;239;1325;-74
2022/11/24 00:08:06;;;;;;;;;;;23.80;34.50;;;;;;498138;239;1426;-74
2022/11/24 00:10:08;;;;;;;;;;;23.80;34.50;;;;;;498203;239;1204;-74
2022/11/24 00:12:09;;;;;;;;;;;23.70;34.50;;;;;;498129;239;1130;-74
2022/11/24 00:14:10;;;;;;;;;;;23.70;34.50;;;;;;498158;239;1154;-74
2022/11/24 00:16:12;;;;;;;;;;;23.80;34.60;;;;;;498174;239;1207;-74
2022/11/24 00:18:13;;;;;;;;;;;23.80;34.50;;;;;;498131;239;2181;-74
2022/11/24 00:20:14;;;;;;;;;;;23.80;34.50;;;;;;498132;239;1288;-74
2022/11/24 00:22:16;;;;;;;;;;;23.80;34.50;;;;;;498089;239;1225;-74
2022/11/24 00:24:17;;;;;;;;;;;23.80;34.50;;;;;;498247;239;1159;-74
2022/11/24 00:26:18;;;;;;;;;;;23.90;34.50;;;;;;498120;239;1139;-74
2022/11/24 00:28:19;;;;;;;;;;;23.90;34.50;;;;;;498074;239;1207;-74
2022/11/24 00:30:21;;;;;;;;;;;23.90;34.50;;;;;;498117;239;1285;-74
2022/11/24 00:32:22;;;;;;;;;;;23.90;34.50;;;;;;498236;239;1384;-74
2022/11/24 00:34:23;;;;;;;;;;;23.90;34.40;;;;;;498364;239;1108;-74
2022/11/24 00:36:25;;;;;;;;;;;23.90;34.40;;;;;;498108;239;1147;-74
2022/11/24 00:38:26;;;;;;;;;;;23.90;34.40;;;;;;498146;239;2185;-74
2022/11/24 00:40:27;;;;;;;;;;;23.90;34.90;;;;;;498274;239;1201;-74
2022/11/24 00:42:29;;;;;;;;;;;23.90;34.60;;;;;;498144;239;1191;-74
2022/11/24 00:44:30;;;;;;;;;;;23.90;34.60;;;;;;498159;239;1167;-74
2022/11/24 00:46:31;;;;;;;;;;;23.90;34.70;;;;;;498196;237;1184;-74
2022/11/24 00:48:33;;;;;;;;;;;23.90;34.50;;;;;;498221;239;1206;-74
2022/11/24 00:50:34;;;;;;;;;;;23.90;34.80;;;;;;498205;239;1242;-74
2022/11/24 00:52:35;;;;;;;;;;;23.90;34.60;;;;;;498167;239;1149;-74
2022/11/24 00:54:37;;;;;;;;;;;23.90;34.80;;;;;;498176;239;1127;-74
2022/11/24 00:56:38;;;;;;;;;;;23.90;34.60;;;;;;498230;239;1144;-74
2022/11/24 00:58:39;;;;;;;;;;;24.00;34.70;;;;;;498147;239;2197;-74
2022/11/24 01:00:41;;;;;;;;;;;24.00;34.60;;;;;;498164;239;1146;-74
2022/11/24 01:02:42;;;;;;;;;;;24.00;34.60;;;;;;498223;239;1141;-74
2022/11/24 01:04:43;;;;;;;;;;;23.90;34.70;;;;;;498344;239;1217;-74
2022/11/24 01:06:45;;;;;;;;;;;23.90;34.70;;;;;;498141;239;1149;-74
2022/11/24 01:08:46;;;;;;;;;;;23.90;34.90;;;;;;498193;239;1219;-74
2022/11/24 01:10:47;;;;;;;;;;;23.90;34.70;;;;;;498127;239;1241;-74
2022/11/24 01:12:49;;;;;;;;;;;23.90;34.70;;;;;;498093;239;1189;-74
2022/11/24 01:14:50;;;;;;;;;;;23.90;34.60;;;;;;498175;239;1188;-74
2022/11/24 01:16:51;;;;;;;;;;;23.90;34.80;;;;;;498092;239;1161;-74
2022/11/24 01:18:53;;;;;;;;;;;23.90;34.90;;;;;;498075;239;2241;-74
2022/11/24 01:20:54;;;;;;;;;;;23.90;34.70;;;;;;498095;239;1200;-74
2022/11/24 01:22:55;;;;;;;;;;;23.90;34.80;;;;;;498075;239;1310;-74
2022/11/24 01:24:57;;;;;;;;;;;23.90;35.00;;;;;;498187;239;1181;-74
2022/11/24 01:26:58;;;;;;;;;;;23.90;34.70;;;;;;498127;239;1331;-74
2022/11/24 01:28:59;;;;;;;;;;;23.90;34.80;;;;;;498126;239;1212;-74
2022/11/24 01:31:01;;;;;;;;;;;23.90;35.10;;;;;;498174;239;1215;-74
2022/11/24 01:33:02;;;;;;;;;;;23.90;34.80;;;;;;498187;239;1362;-74
2022/11/24 01:35:03;;;;;;;;;;;23.90;34.90;;;;;;498202;239;1254;-74
2022/11/24 01:37:05;;;;;;;;;;;23.90;35.00;;;;;;498200;239;1215;-74
2022/11/24 01:39:06;;;;;;;;;;;23.90;34.90;;;;;;498165;239;2212;-74
2022/11/24 01:41:07;;;;;;;;;;;23.90;35.00;;;;;;498146;239;1219;-74
2022/11/24 01:43:09;;;;;;;;;;;23.80;34.90;;;;;;498100;239;1312;-74
2022/11/24 01:45:10;;;;;;;;;;;23.90;34.90;;;;;;498101;239;1208;-74
2022/11/24 01:47:11;;;;;;;;;;;23.90;35.20;;;;;;498191;239;1167;-74
2022/11/24 01:49:13;;;;;;;;;;;23.90;34.90;;;;;;498109;239;1312;-74
2022/11/24 01:51:14;;;;;;;;;;;23.90;34.90;;;;;;498184;239;1306;-73
2022/11/24 01:53:15;;;;;;;;;;;23.90;34.90;;;;;;498109;239;1173;-73
2022/11/24 01:55:17;;;;;;;;;;;23.90;34.90;;;;;;498150;239;1168;-73
2022/11/24 01:57:18;;;;;;;;;;;23.90;34.80;;;;;;498121;239;1153;-73
2022/11/24 01:59:19;;;;;;;;;;;24.00;34.90;;;;;;498112;239;2188;-73
2022/11/24 02:01:21;;;;;;;;;;;23.90;35.20;;;;;;498118;239;1215;-73
2022/11/24 02:03:22;;;;;;;;;;;24.00;34.80;;;;;;498297;239;1657;-73
2022/11/24 02:05:23;;;;;;;;;;;23.90;35.10;;;;;;498183;239;1261;-73
2022/11/24 02:07:25;;;;;;;;;;;24.00;34.90;;;;;;498277;239;1237;-73
2022/11/24 02:09:26;;;;;;;;;;;23.90;35.20;;;;;;498208;239;1142;-73
2022/11/24 02:11:27;;;;;;;;;;;23.90;34.80;;;;;;498200;239;1127;-73
2022/11/24 02:13:29;;;;;;;;;;;24.00;34.80;;;;;;498115;239;1188;-73
2022/11/24 02:15:30;;;;;;;;;;;23.90;35.20;;;;;;498221;239;1202;-73
2022/11/24 02:17:31;;;;;;;;;;;23.90;34.80;;;;;;498164;239;1198;-73
2022/11/24 02:19:32;;;;;;;;;;;23.90;34.90;;;;;;498210;239;2184;-74
2022/11/24 02:21:34;;;;;;;;;;;23.90;34.90;;;;;;498237;239;1269;-74
2022/11/24 02:23:35;;;;;;;;;;;23.90;35.10;;;;;;498185;239;1191;-74
2022/11/24 02:25:37;;;;;;;;;;;23.90;35.20;;;;;;498226;239;1165;-74
2022/11/24 02:27:38;;;;;;;;;;;23.90;34.90;;;;;;498280;239;1291;-74
2022/11/24 02:29:39;;;;;;;;;;;23.90;34.90;;;;;;498269;239;1082;-74
2022/11/24 02:31:40;;;;;;;;;;;23.90;34.90;;;;;;498269;239;1362;-74
2022/11/24 02:33:42;;;;;;;;;;;23.90;35.10;;;;;;498211;239;1153;-74
2022/11/24 02:35:43;;;;;;;;;;;23.80;35.20;;;;;;498212;239;1119;-74
2022/11/24 02:37:44;;;;;;;;;;;23.80;35.20;;;;;;498180;239;1201;-74
2022/11/24 02:39:46;;;;;;;;;;;23.90;35.00;;;;;;498108;239;2261;-74
2022/11/24 02:41:47;;;;;;;;;;;23.80;34.90;;;;;;498139;239;1193;-74
2022/11/24 02:43:48;;;;;;;;;;;23.90;34.80;;;;;;498119;239;1208;-74
2022/11/24 02:45:50;;;;;;;;;;;23.90;34.80;;;;;;498226;239;1209;-74
2022/11/24 02:47:51;;;;;;;;;;;23.90;35.00;;;;;;498257;239;1268;-74
2022/11/24 02:49:52;;;;;;;;;;;23.80;35.10;;;;;;498234;239;1184;-74
2022/11/24 02:51:54;;;;;;;;;;;23.80;35.20;;;;;;498227;239;1161;-74
2022/11/24 02:53:55;;;;;;;;;;;23.80;35.00;;;;;;498100;239;1280;-74
2022/11/24 02:55:56;;;;;;;;;;;23.90;34.90;;;;;;498109;239;1308;-74
2022/11/24 02:57:58;;;;;;;;;;;23.90;35.30;;;;;;498073;239;1174;-74
2022/11/24 02:59:59;;;;;;;;;;;23.90;35.20;;;;;;498178;239;2212;-74
2022/11/24 03:02:00;;;;;;;;;;;23.70;35.30;;;;;;498153;239;1168;-74
2022/11/24 03:04:02;;;;;;;;;;;23.60;35.60;;;;;;498140;239;1406;-73
2022/11/24 03:06:03;;;;;;;;;;;23.70;35.60;;;;;;498142;239;1227;-73
2022/11/24 03:08:04;;;;;;;;;;;23.70;35.70;;;;;;498195;239;1156;-73
2022/11/24 03:10:06;;;;;;;;;;;23.70;35.60;;;;;;498052;239;1199;-73
2022/11/24 03:12:07;;;;;;;;;;;23.70;35.60;;;;;;498119;239;1174;-74
2022/11/24 03:14:08;;;;;;;;;;;23.80;35.40;;;;;;498013;239;1266;-74
2022/11/24 03:16:10;;;;;;;;;;;23.90;35.30;;;;;;498037;239;1225;-74
2022/11/24 03:18:11;;;;;;;;;;;24.00;35.20;;;;;;498129;239;1132;-74
2022/11/24 03:20:12;;;;;;;;;;;23.90;35.10;;;;;;498025;239;2181;-74
2022/11/24 03:22:14;;;;;;;;;;;23.90;35.10;;;;;;498152;239;1215;-74
2022/11/24 03:24:15;;;;;;;;;;;23.90;35.10;;;;;;498052;239;1297;-74
2022/11/24 03:26:16;;;;;;;;;;;24.00;35.00;;;;;;498125;239;1373;-74
2022/11/24 03:28:18;;;;;;;;;;;24.00;35.00;;;;;;498086;239;1180;-74
2022/11/24 03:30:19;;;;;;;;;;;24.00;35.00;;;;;;498097;239;1300;-74
2022/11/24 03:32:20;;;;;;;;;;;24.00;35.00;;;;;;498072;239;1190;-73
2022/11/24 03:34:22;;;;;;;;;;;24.00;35.00;;;;;;498184;239;1326;-73
2022/11/24 03:36:23;;;;;;;;;;;23.90;35.00;;;;;;498147;239;1152;-73
2022/11/24 03:38:24;;;;;;;;;;;24.00;35.10;;;;;;498107;239;1156;-73
2022/11/24 03:40:26;;;;;;;;;;;24.00;34.70;;;;;;498190;239;2169;-73
2022/11/24 03:42:27;;;;;;;;;;;23.90;34.80;;;;;;498339;239;1682;-73
2022/11/24 03:44:28;;;;;;;;;;;23.90;34.80;;;;;;498053;239;1162;-74
2022/11/24 03:46:30;;;;;;;;;;;23.90;34.80;;;;;;498181;239;1157;-74
2022/11/24 03:48:31;;;;;;;;;;;24.00;34.80;;;;;;498062;239;1167;-74
2022/11/24 03:50:32;;;;;;;;;;;23.90;35.00;;;;;;498053;239;1385;-74
2022/11/24 03:52:34;;;;;;;;;;;23.90;35.00;;;;;;498110;239;1144;-74
2022/11/24 03:54:35;;;;;;;;;;;23.90;35.30;;;;;;498063;239;1204;-74
2022/11/24 03:56:36;;;;;;;;;;;23.90;35.30;;;;;;498084;239;1160;-74
2022/11/24 03:58:38;;;;;;;;;;;23.90;35.10;;;;;;498090;239;1125;-74
2022/11/24 04:00:39;;;;;;;;;;;23.90;34.90;;;;;;498106;239;2192;-74
2022/11/24 04:02:40;;;;;;;;;;;23.90;35.00;;;;;;498171;237;1192;-74
2022/11/24 04:04:42;;;;;;;;;;;23.90;35.00;;;;;;498215;239;1181;-74
2022/11/24 04:06:43;;;;;;;;;;;23.90;35.00;;;;;;498201;239;1187;-74
2022/11/24 04:08:44;;;;;;;;;;;23.90;35.00;;;;;;498280;239;1173;-74
2022/11/24 04:10:46;;;;;;;;;;;23.90;35.00;;;;;;498258;239;1114;-74
2022/11/24 04:12:47;;;;;;;;;;;23.70;34.90;;;;;;498279;239;1145;-74
2022/11/24 04:14:48;;;;;;;;;;;23.60;35.30;;;;;;498189;239;1241;-74
2022/11/24 04:16:50;;;;;;;;;;;23.60;35.50;;;;;;498263;239;1211;-74
2022/11/24 04:18:51;;;;;;;;;;;23.60;35.80;;;;;;498194;239;2413;-74
2022/11/24 04:20:52;;;;;;;;;;;23.60;35.50;;;;;;498177;239;1180;-74
2022/11/24 04:22:54;;;;;;;;;;;23.60;35.60;;;;;;498208;239;1105;-74
2022/11/24 04:24:55;;;;;;;;;;;23.60;35.30;;;;;;498172;239;1217;-74
2022/11/24 04:26:56;;;;;;;;;;;23.70;35.70;;;;;;498326;239;1225;-74
2022/11/24 04:28:58;;;;;;;;;;;23.70;35.60;;;;;;498005;239;1153;-74
2022/11/24 04:30:59;;;;;;;;;;;23.90;35.30;;;;;;498084;239;1250;-74
2022/11/24 04:33:00;;;;;;;;;;;23.90;35.10;;;;;;498091;239;1196;-74
2022/11/24 04:35:02;;;;;;;;;;;24.00;34.80;;;;;;498129;239;1173;-74
2022/11/24 04:37:03;;;;;;;;;;;24.00;34.80;;;;;;498028;239;1448;-74
2022/11/24 04:39:04;;;;;;;;;;;23.90;34.80;;;;;;498046;239;2193;-74
2022/11/24 04:41:06;;;;;;;;;;;24.00;34.80;;;;;;498073;239;1222;-74
2022/11/24 04:43:07;;;;;;;;;;;23.90;34.90;;;;;;498102;239;1325;-74
2022/11/24 04:45:08;;;;;;;;;;;24.00;35.00;;;;;;498094;239;1274;-74
2022/11/24 04:47:10;;;;;;;;;;;24.00;35.10;;;;;;498075;239;1189;-74
2022/11/24 04:49:11;;;;;;;;;;;24.00;35.10;;;;;;498160;239;1197;-74
2022/11/24 04:51:12;;;;;;;;;;;24.10;34.90;;;;;;498212;239;1176;-74
2022/11/24 04:53:14;;;;;;;;;;;24.10;34.70;;;;;;498228;239;1163;-74
2022/11/24 04:55:15;;;;;;;;;;;24.10;34.70;;;;;;498280;239;1153;-74
2022/11/24 04:57:16;;;;;;;;;;;24.10;34.70;;;;;;498180;239;1267;-74
2022/11/24 04:59:18;;;;;;;;;;;24.10;34.80;;;;;;498136;239;2154;-74
2022/11/24 05:01:19;;;;;;;;;;;24.10;34.80;;;;;;498110;239;1146;-74
2022/11/24 05:03:20;;;;;;;;;;;24.10;35.10;;;;;;498211;239;1222;-74
2022/11/24 05:05:21;;;;;;;;;;;24.10;35.10;;;;;;498202;239;1201;-74
2022/11/24 05:07:23;;;;;;;;;;;24.00;35.10;;;;;;498223;239;1181;-74
2022/11/24 05:09:24;;;;;;;;;;;24.10;34.80;;;;;;498087;239;1182;-74
2022/11/24 05:11:25;;;;;;;;;;;24.00;34.70;;;;;;498123;239;1174;-74
2022/11/24 05:13:27;;;;;;;;;;;24.00;35.10;;;;;;498076;239;1180;-74
2022/11/24 05:15:28;;;;;;;;;;;23.90;35.40;;;;;;498214;239;1196;-74
2022/11/24 05:17:29;;;;;;;;;;;23.80;35.40;;;;;;498049;239;1221;-74
2022/11/24 05:19:31;;;;;;;;;;;23.80;35.40;;;;;;498070;239;2162;-74
2022/11/24 05:21:32;;;;;;;;;;;23.80;35.70;;;;;;498123;239;1150;-74
2022/11/24 05:23:33;;;;;;;;;;;23.80;35.70;;;;;;497992;239;1226;-74
2022/11/24 05:25:35;;;;;;;;;;;23.80;35.60;;;;;;498014;239;1239;-74
2022/11/24 05:27:36;;;;;;;;;;;24.00;35.20;;;;;;498101;239;1295;-74
2022/11/24 05:29:37;;;;;;;;;;;24.00;35.00;;;;;;498141;239;1203;-74
2022/11/24 05:31:39;;;;;;;;;;;24.00;34.80;;;;;;497937;239;1183;-74
2022/11/24 05:33:42;;;;;;;;;;;24.10;34.80;;;;;;498160;239;1164;-74
2022/11/24 05:35:41;;;;;;;;;;;24.10;34.80;;;;;;497852;239;1378;-74
2022/11/24 05:37:43;;;;;;;;;;;24.10;34.80;;;;;;498112;239;1418;-74
2022/11/24 05:39:44;;;;;;;;;;;24.10;34.70;;;;;;498166;239;2181;-74
2022/11/24 05:41:45;;;;;;;;;;;24.10;34.70;;;;;;498127;239;1178;-74
2022/11/24 05:43:47;;;;;;;;;;;24.10;34.70;;;;;;498080;239;1246;-74
2022/11/24 05:45:48;;;;;;;;;;;24.10;34.70;;;;;;498053;239;1213;-74
2022/11/24 05:47:49;;;;;;;;;;;24.10;34.80;;;;;;497931;239;1423;-74
2022/11/24 05:49:51;;;;;;;;;;;24.10;34.80;;;;;;498220;239;1228;-74
2022/11/24 05:51:52;;;;;;;;;;;24.10;34.90;;;;;;498070;239;1190;-73
2022/11/24 05:53:54;;;;;;;;;;;24.10;34.90;;;;;;498006;239;1170;-73
2022/11/24 05:55:55;;;;;;;;;;;24.00;34.90;;;;;;498098;239;1218;-74
2022/11/24 05:57:56;;;;;;;;;;;24.00;34.80;;;;;;497983;239;1135;-74
2022/11/24 05:59:58;;;;;;;;;;;24.10;34.80;;;;;;497977;239;2189;-74
2022/11/24 06:01:59;;;;;;;;;;;24.10;34.90;;;;;;498060;239;1226;-74
2022/11/24 06:04:00;;;;;;;;;;;24.10;34.90;;;;;;498101;239;1210;-74
2022/11/24 06:06:02;;;;;;;;;;;24.00;34.90;;;;;;498089;239;1242;-74
2022/11/24 06:08:03;;;;;;;;;;;24.00;34.90;;;;;;497955;239;1226;-74
2022/11/24 06:10:04;;;;;;;;;;;24.00;35.00;;;;;;497996;239;1236;-74
2022/11/24 06:12:05;;;;;;;;;;;24.00;34.90;;;;;;498103;239;1160;-74
2022/11/24 06:14:07;;;;;;;;;;;24.10;34.90;;;;;;497921;239;1349;-74
2022/11/24 06:16:08;;;;;;;;;;;24.10;35.00;;;;;;498006;239;1675;-74
2022/11/24 06:18:10;;;;;;;;;;;24.10;35.00;;;;;;498057;239;1239;-73
2022/11/24 06:20:11;;;;;;;;;;;24.10;35.00;;;;;;498102;239;2177;-74
2022/11/24 06:22:12;;;;;;;;;;;24.10;35.10;;;;;;498206;239;1189;-74
2022/11/24 06:24:14;;;;;;;;;;;24.10;35.20;;;;;;498089;239;1174;-74
2022/11/24 06:26:16;;;;;;;;;;;24.10;35.30;;;;;;498014;239;1307;-74
2022/11/24 06:28:17;;;;;;;;;;;24.00;35.20;;;;;;498094;239;1175;-74
2022/11/24 06:30:19;;;;;;;;;;;24.00;35.10;;;;;;497956;239;1147;-74
2022/11/24 06:32:20;;;;;;;;;;;23.90;35.30;;;;;;498072;239;1204;-74
2022/11/24 06:34:21;;;;;;;;;;;23.80;35.60;;;;;;498078;239;1105;-73
2022/11/24 06:36:23;;;;;;;;;;;23.80;35.50;;;;;;498055;239;1195;-73
2022/11/24 06:38:24;;;;;;;;;;;23.70;35.20;;;;;;497996;239;1224;-73
2022/11/24 06:40:25;;;;;;;;;;;23.80;35.30;;;;;;497897;239;2149;-73
2022/11/24 06:42:26;;;;;;;;;;;23.90;35.40;;;;;;497855;239;1243;-73
2022/11/24 06:44:28;;;;;;;;;;;23.90;35.40;;;;;;497945;239;1208;-74
2022/11/24 06:46:29;;;;;;;;;;;24.00;35.50;;;;;;498053;239;1181;-74
2022/11/24 06:48:30;;;;;;;;;;;24.00;35.30;;;;;;497973;239;1142;-74
2022/11/24 06:50:32;;;;;;;;;;;24.10;35.10;;;;;;498009;239;1255;-74
2022/11/24 06:52:33;;;;;;;;;;;24.10;35.00;;;;;;497909;239;1192;-74
2022/11/24 06:54:34;;;;;;;;;;;24.10;34.80;;;;;;497945;239;1222;-74
2022/11/24 06:56:36;;;;;;;;;;;24.20;34.80;;;;;;497921;239;1237;-74
2022/11/24 06:58:37;;;;;;;;;;;24.10;34.80;;;;;;497893;239;1220;-74
2022/11/24 07:00:39;;;;;;;;;;;24.10;35.20;;;;;;497948;239;2181;-74
2022/11/24 07:02:40;;;;;;;;;;;24.10;35.10;;;;;;497880;239;1277;-73
2022/11/24 07:04:41;;;;;;;;;;;24.10;35.00;;;;;;497990;239;1208;-74
2022/11/24 07:06:43;;;;;;;;;;;24.10;34.90;;;;;;498070;239;1170;-74
2022/11/24 07:08:44;;;;;;;;;;;24.10;35.00;;;;;;497875;239;1159;-74
2022/11/24 07:10:45;;;;;;;;;;;24.10;35.20;;;;;;498031;239;1165;-74
2022/11/24 07:12:47;;;;;;;;;;;24.20;34.80;;;;;;497853;239;1190;-74
2022/11/24 07:14:48;;;;;;;;;;;24.10;35.00;;;;;;497867;239;1247;-74
2022/11/24 07:16:49;;;;;;;;;;;24.10;35.30;;;;;;498086;239;1146;-74
2022/11/24 07:18:51;;;;;;;;;;;24.10;35.00;;;;;;497902;239;1508;-73
2022/11/24 07:20:52;;;;;;;;;;;24.00;35.20;;;;;;497998;239;2153;-74
2022/11/24 07:22:53;;;;;;;;;;;24.10;35.30;;;;;;498096;239;1174;-74
2022/11/24 07:24:55;;;;;;;;;;;24.10;35.10;;;;;;497854;239;1378;-74
2022/11/24 07:26:56;;;;;;;;;;;24.10;35.10;;;;;;497887;239;1347;-74
2022/11/24 07:28:57;;;;;;;;;;;24.10;35.40;;;;;;497991;239;1170;-74
2022/11/24 07:30:58;;;;;;;;;;;24.10;35.30;;;;;;498002;239;1240;-74
2022/11/24 07:33:00;;;;;;;;;;;24.00;35.10;;;;;;497974;239;1154;-74
2022/11/24 07:35:01;;;;;;;;;;;24.10;35.10;;;;;;498065;239;1317;-74
2022/11/24 07:37:02;;;;;;;;;;;24.10;35.40;;;;;;497539;239;1166;-73
2022/11/24 07:39:04;;;;;;;;;;;24.10;35.30;;;;;;497797;239;1173;-73
2022/11/24 07:41:05;;;;;;;;;;;24.10;35.50;;;;;;497887;239;2193;-74
2022/11/24 07:43:06;;;;;;;;;;;24.10;35.40;;;;;;497904;239;1146;-73
2022/11/24 07:45:08;;;;;;;;;;;24.10;35.10;;;;;;497846;239;1173;-74
2022/11/24 07:47:09;;;;;;;;;;;24.10;35.30;;;;;;497903;239;1181;-74
2022/11/24 07:49:10;;;;;;;;;;;24.10;35.20;;;;;;497758;239;1120;-74
2022/11/24 07:51:12;;;;;;;;;;;24.10;35.10;;;;;;497982;239;1342;-74
2022/11/24 07:53:13;;;;;;;;;;;24.10;35.50;;;;;;497854;239;1277;-73
2022/11/24 07:55:14;;;;;;;;;;;24.10;35.20;;;;;;497936;239;1198;-73
2022/11/24 07:57:16;;;;;;;;;;;24.10;35.10;;;;;;497744;239;1207;-74
2022/11/24 07:59:17;;;;;;;;;;;23.90;36.00;;;;;;497676;239;1097;-73
2022/11/24 08:01:18;;;;;;;;;;;23.80;35.60;;;;;;497792;239;2149;-73
2022/11/24 08:03:20;;;;;;;;;;;23.80;35.60;;;;;;497689;239;1240;-73
2022/11/24 08:05:21;;;;;;;;;;;23.90;35.50;;;;;;497742;239;1144;-74
2022/11/24 08:07:22;;;;;;;;;;;23.90;35.50;;;;;;497776;239;1175;-73
2022/11/24 08:09:24;;;;;;;;;;;24.00;35.70;;;;;;497805;239;1195;-73
2022/11/24 08:11:25;;;;;;;;;;;24.10;35.30;;;;;;497866;239;1242;-74
2022/11/24 08:13:26;;;;;;;;;;;24.10;35.70;;;;;;497862;239;1202;-73
2022/11/24 08:15:28;;;;;;;;;;;24.10;35.40;;;;;;497810;239;1147;-74
2022/11/24 08:17:29;;;;;;;;;;;24.10;35.30;;;;;;497866;239;1208;-74
2022/11/24 08:19:31;;;;;;;;;;;24.10;35.60;;;;;;497653;239;1163;-73
2022/11/24 08:21:32;;;;;;;;;;;24.10;35.40;;;;;;497781;237;2180;-74
2022/11/24 08:23:33;;;;;;;;;;;24.10;35.60;;;;;;497576;239;1167;-73
2022/11/24 08:25:35;;;;;;;;;;;24.10;35.70;;;;;;497524;239;1419;-73
2022/11/24 08:27:37;;;;;;;;;;;24.10;35.60;;;;;;497709;239;1213;-73
2022/11/24 08:29:37;;;;;;;;;;;24.10;35.50;;;;;;497497;239;2080;-73
2022/11/24 08:31:39;;;;;;;;;;;24.10;35.50;;;;;;497832;239;1180;-73
2022/11/24 08:33:40;;;;;;;;;;;24.10;35.40;;;;;;497661;239;1180;-74
2022/11/24 08:35:41;;;;;;;;;;;24.10;35.70;;;;;;497746;239;1221;-73
2022/11/24 08:37:43;;;;;;;;;;;24.10;35.40;;;;;;497612;239;1271;-73
2022/11/24 08:39:44;;;;;;;;;;;24.10;35.60;;;;;;497639;239;1203;-73
2022/11/24 08:41:45;;;;;;;;;;;24.10;35.80;;;;;;497720;239;2177;-73
2022/11/24 08:43:46;;;;;;;;;;;24.10;35.60;;;;;;497751;239;1353;-73
2022/11/24 08:45:48;;;;;;;;;;;24.10;35.50;;;;;;497854;239;1190;-73
2022/11/24 08:47:49;;;;;;;;;;;24.10;35.60;;;;;;497681;239;1129;-74
2022/11/24 08:49:51;;;;;;;;;;;24.10;35.40;;;;;;497969;239;1144;-73
2022/11/24 08:51:52;;;;;;;;;;;24.10;35.60;;;;;;497665;239;1259;-73
2022/11/24 08:53:53;;;;;;;;;;;24.10;35.30;;;;;;497852;239;1216;-73
2022/11/24 08:55:54;;;;;;;;;;;24.20;35.60;;;;;;497673;239;1166;-73
2022/11/24 08:57:56;;;;;;;;;;;24.10;35.70;;;;;;497865;239;1163;-73
2022/11/24 08:59:57;;;;;;;;;;;24.10;35.50;;;;;;497735;239;1150;-73
2022/11/24 09:01:58;;;;;;;;;;;24.10;35.60;;;;;;497914;239;2188;-73
2022/11/24 09:04:00;;;;;;;;;;;24.10;35.60;;;;;;497862;239;1153;-73
2022/11/24 09:06:01;;;;;;;;;;;24.10;35.60;;;;;;497846;239;1204;-72
2022/11/24 09:08:02;;;;;;;;;;;24.10;35.60;;;;;;497811;239;1223;-73
2022/11/24 09:10:04;;;;;;;;;;;24.10;35.50;;;;;;497806;239;1175;-73
2022/11/24 09:12:05;;;;;;;;;;;24.20;35.50;;;;;;497863;239;1324;-73
2022/11/24 09:14:06;;;;;;;;;;;24.10;35.70;;;;;;497787;239;1258;-73
2022/11/24 09:16:08;;;;;;;;;;;24.10;35.60;;;;;;497932;239;1145;-73
2022/11/24 09:18:09;;;;;;;;;;;24.10;35.80;;;;;;497767;239;1113;-73
2022/11/24 09:20:10;;;;;;;;;;;24.10;35.60;;;;;;497885;239;1133;-73
2022/11/24 09:22:12;;;;;;;;;;;24.10;35.70;;;;;;497810;239;2192;-73
2022/11/24 09:24:15;;;;;;;;;;;24.10;35.70;;;;;;497800;239;1153;-73
2022/11/24 09:26:14;;;;;;;;;;;24.10;35.50;;;;;;497631;239;1387;-73
2022/11/24 09:28:16;;;;;;;;;;;24.10;35.70;;;;;;497682;239;1232;-73
2022/11/24 09:30:17;;;;;;;;;;;24.10;35.90;;;;;;497816;239;1147;-73
2022/11/24 09:32:18;;;;;;;;;;;24.10;35.70;;;;;;497901;239;1239;-73
2022/11/24 09:34:20;;;;;;;;;;;24.10;35.90;;;;;;497600;239;1262;-73
2022/11/24 09:36:21;;;;;;;;;;;24.10;35.70;;;;;;497893;239;1141;-73
2022/11/24 09:38:22;;;;;;;;;;;24.10;35.90;;;;;;497786;239;1251;-73
2022/11/24 09:40:24;;;;;;;;;;;24.10;35.50;;;;;;497760;239;1125;-73
2022/11/24 09:42:25;;;;;;;;;;;24.10;35.80;;;;;;497887;239;2176;-73
2022/11/24 09:44:26;;;;;;;;;;;24.10;35.90;;;;;;497755;239;1149;-73
2022/11/24 09:46:28;;;;;;;;;;;24.10;35.80;;;;;;497805;239;1138;-73
2022/11/24 09:48:29;;;;;;;;;;;24.10;36.00;;;;;;497735;239;1163;-73
2022/11/24 09:50:30;;;;;;;;;;;24.10;35.80;;;;;;497601;239;1252;-73
2022/11/24 09:52:31;;;;;;;;;;;24.10;35.90;;;;;;497276;239;1412;-73
2022/11/24 09:54:33;;;;;;;;;;;24.10;35.90;;;;;;497658;239;1182;-73
2022/11/24 09:56:34;;;;;;;;;;;24.10;36.00;;;;;;497777;239;1152;-73
2022/11/24 09:58:35;;;;;;;;;;;24.10;36.00;;;;;;497551;239;1260;-73
2022/11/24 10:00:37;;;;;;;;;;;24.10;36.10;;;;;;497820;239;1079;-73
2022/11/24 10:02:38;;;;;;;;;;;24.00;35.90;;;;;;497652;239;2198;-73
2022/11/24 10:04:39;;;;;;;;;;;24.00;36.00;;;;;;497737;239;1229;-73
2022/11/24 10:06:41;;;;;;;;;;;23.90;36.40;;;;;;497848;239;1159;-73
2022/11/24 10:08:42;;;;;;;;;;;23.80;36.20;;;;;;497781;239;1189;-73
2022/11/24 10:10:44;;;;;;;;;;;23.80;36.60;;;;;;497743;239;1357;-73
2022/11/24 10:12:45;;;;;;;;;;;23.90;36.40;;;;;;497861;239;1188;-73
2022/11/24 10:14:46;;;;;;;;;;;23.80;36.60;;;;;;497602;239;1219;-73
2022/11/24 10:16:48;;;;;;;;;;;23.90;36.20;;;;;;497724;239;1187;-73
2022/11/24 10:18:49;;;;;;;;;;;23.80;36.60;;;;;;497713;239;1184;-73
2022/11/24 10:20:50;;;;;;;;;;;23.80;36.40;;;;;;497433;239;1284;-73
2022/11/24 10:22:52;;;;;;;;;;;23.80;36.50;;;;;;497612;239;2193;-73
2022/11/24 10:24:53;;;;;;;;;;;23.90;36.40;;;;;;497683;239;1203;-73
2022/11/24 10:26:54;;;;;;;;;;;23.80;36.60;;;;;;497805;239;1181;-73
2022/11/24 10:28:56;;;;;;;;;;;23.80;36.40;;;;;;497648;239;1191;-73
2022/11/24 10:30:57;;;;;;;;;;;23.80;36.60;;;;;;497808;239;1207;-73
2022/11/24 10:32:58;;;;;;;;;;;23.80;36.40;;;;;;497831;239;1113;-73
2022/11/24 10:34:59;;;;;;;;;;;23.80;36.60;;;;;;497690;239;1205;-73
2022/11/24 10:37:01;;;;;;;;;;;23.80;36.40;;;;;;497903;239;1281;-73
2022/11/24 10:39:02;;;;;;;;;;;23.80;36.60;;;;;;497977;239;1238;-75
2022/11/24 10:41:04;;;;;;;;;;;23.80;36.40;;;;;;497903;239;1159;-73
2022/11/24 10:43:09;;;;;;;;;;;23.80;36.50;;;;;;497866;239;2105;-73
2022/11/24 10:45:07;;;;;;;;;;;23.80;36.60;;;;;;497494;239;1300;-73
2022/11/24 10:47:08;;;;;;;;;;;23.80;36.30;;;;;;497980;239;1199;-73
2022/11/24 10:49:10;;;;;;;;;;;23.80;36.40;;;;;;497896;239;1305;-73
2022/11/24 10:51:11;;;;;;;;;;;23.70;36.70;;;;;;497906;239;1249;-73
2022/11/24 10:53:12;;;;;;;;;;;23.70;36.70;;;;;;497849;239;1245;-74
2022/11/24 10:55:14;;;;;;;;;;;23.70;36.40;;;;;;497869;239;1519;-73
2022/11/24 10:57:15;;;;;;;;;;;23.70;36.70;;;;;;497776;239;1225;-73
2022/11/24 10:59:16;;;;;;;;;;;23.70;36.60;;;;;;497857;239;1128;-73
2022/11/24 11:01:17;;;;;;;;;;;23.70;36.40;;;;;;497844;239;2196;-73
2022/11/24 11:03:19;;;;;;;;;;;23.70;36.40;;;;;;497674;239;1142;-73
2022/11/24 11:05:20;;;;;;;;;;;23.70;36.50;;;;;;497649;239;1160;-73
2022/11/24 11:07:22;;;;;;;;;;;23.70;36.20;;;;;;497749;239;1697;-73
2022/11/24 11:09:23;;;;;;;;;;;23.60;36.10;;;;;;497628;239;1428;-73
2022/11/24 11:11:24;;;;;;;;;;;23.70;36.10;;;;;;497803;239;1259;-73
2022/11/24 11:13:26;;;;;;;;;;;23.60;36.10;;;;;;497893;239;1641;-73
2022/11/24 11:15:27;;;;;;;;;;;23.60;36.20;;;;;;497784;239;1182;-73
2022/11/24 11:17:28;;;;;;;;;;;23.70;36.30;;;;;;497726;239;1129;-73
2022/11/24 11:19:31;;;;;;;;;;;23.70;36.10;;;;;;497800;239;1173;-73
2022/11/24 11:21:31;;;;;;;;;;;23.70;35.90;;;;;;497681;239;2181;-73
2022/11/24 11:23:33;;;;;;;;;;;23.50;36.10;;;;;;497753;239;1397;-73
2022/11/24 11:25:34;;;;;;;;;;;23.40;36.40;;;;;;497656;239;1500;-73
2022/11/24 11:27:35;;;;;;;;;;;23.40;36.30;;;;;;497792;239;1199;-73
2022/11/24 11:29:37;;;;;;;;;;;23.40;36.30;;;;;;497790;239;1289;-73
2022/11/24 11:31:38;;;;;;;;;;;23.50;36.50;;;;;;497746;239;1195;-73
2022/11/24 11:33:39;;;;;;;;;;;23.50;36.40;;;;;;497864;239;1324;-73
2022/11/24 11:35:40;;;;;;;;;;;23.50;36.30;;;;;;497695;239;1225;-73
2022/11/24 11:37:42;;;;;;;;;;;23.50;36.50;;;;;;497504;239;1218;-73
2022/11/24 11:39:43;;;;;;;;;;;23.60;36.10;;;;;;497483;239;1246;-73
2022/11/24 11:41:44;;;;;;;;;;;23.70;36.10;;;;;;497616;239;2193;-74
2022/11/24 11:43:46;;;;;;;;;;;23.70;36.10;;;;;;497744;239;1250;-73
2022/11/24 11:45:47;;;;;;;;;;;23.70;36.20;;;;;;497788;239;1158;-73
2022/11/24 11:47:48;;;;;;;;;;;23.80;36.00;;;;;;497737;239;1198;-73
2022/11/24 11:49:50;;;;;;;;;;;23.70;35.90;;;;;;497788;239;1210;-73
2022/11/24 11:51:51;;;;;;;;;;;23.70;35.90;;;;;;497868;239;1131;-73
2022/11/24 11:53:52;;;;;;;;;;;23.70;36.10;;;;;;497643;239;1546;-73
2022/11/24 11:55:54;;;;;;;;;;;23.70;36.20;;;;;;497690;239;1388;-73